Time;durP1;ratioP1;P1;durP2;ratioP2;P2;SDS_P1;SDS_P2;PMS_P1;PMS_P2;Temp;Humidity;BMP_temperature;BMP_pressure;BME280_temperature;BME280_humidity;BME280_pressure;Samples;Min_cycle;Max_cycle;Signal;HPM_P1;HPM_P2
2023/04/03 00:01:33;;;;;;;5.28;1.25;;;;;;;;;;4998413;28;20034;-84
2023/04/03 00:04:00;;;;;;;4.55;1.40;;;;;;;;;;5001371;28;20074;-84
2023/04/03 00:06:26;;;;;;;3.53;1.15;;;;;;;;;;5006003;28;20046;-84
2023/04/03 00:08:52;;;;;;;5.28;1.30;;;;;;;;;;4990914;28;20061;-84
2023/04/03 00:11:19;;;;;;;4.55;1.52;;;;;;;;;;5008409;28;20405;-84
2023/04/03 00:13:46;;;;;;;4.00;1.40;;;;;;;;;;5005379;28;20054;-83
2023/04/03 00:16:13;;;;;;;5.82;1.50;;;;;;;;;;5012217;28;20125;-83
2023/04/03 00:18:40;;;;;;;5.93;1.50;;;;;;;;;;5012370;28;20038;-84
2023/04/03 00:21:07;;;;;;;6.10;1.58;;;;;;;;;;5011523;28;20093;-83
2023/04/03 00:23:34;;;;;;;8.77;2.63;;;;;;;;;;5011350;28;20042;-85
2023/04/03 00:26:00;;;;;;;6.68;1.40;;;;;;;;;;4994358;28;20052;-85
2023/04/03 00:28:26;;;;;;;6.43;1.40;;;;;;;;;;5011277;28;20046;-85
2023/04/03 00:30:52;;;;;;;4.15;1.23;;;;;;;;;;5010810;28;20054;-84
2023/04/03 00:33:21;;;;;;;7.15;1.70;;;;;;;;;;5011080;28;20077;-85
2023/04/03 00:35:47;;;;;;;4.55;1.45;;;;;;;;;;5007268;28;20053;-86
2023/04/03 00:38:14;;;;;;;5.32;1.20;;;;;;;;;;4984114;28;20034;-84
2023/04/03 00:40:42;;;;;;;6.43;1.80;;;;;;;;;;4999748;28;20054;-84
2023/04/03 00:43:16;;;;;;;6.03;1.70;;;;;;;;;;4999430;28;20546;-85
2023/04/03 00:45:44;;;;;;;4.90;1.58;;;;;;;;;;5000061;28;20057;-84
2023/04/03 00:48:21;;;;;;;4.00;1.20;;;;;;;;;;4984089;28;20051;-86
2023/04/03 00:50:47;;;;;;;5.50;1.70;;;;;;;;;;5002591;28;20049;-85
2023/04/03 00:53:17;;;;;;;6.43;1.70;;;;;;;;;;5001087;28;20053;-83
2023/04/03 00:55:43;;;;;;;5.15;1.42;;;;;;;;;;5000641;28;20042;-85
2023/04/03 00:58:10;;;;;;;5.60;1.38;;;;;;;;;;5000918;28;20045;-85
2023/04/03 01:00:38;;;;;;;5.68;1.40;;;;;;;;;;5015130;28;20054;-84
2023/04/03 01:03:04;;;;;;;7.10;1.55;;;;;;;;;;4998381;28;20078;-85
2023/04/03 01:05:30;;;;;;;4.82;1.42;;;;;;;;;;5001852;28;20125;-83
2023/04/03 01:07:57;;;;;;;7.18;1.50;;;;;;;;;;5010089;28;20054;-84
2023/04/03 01:10:25;;;;;;;5.95;1.60;;;;;;;;;;4993149;28;20046;-83
2023/04/03 01:12:51;;;;;;;5.30;1.27;;;;;;;;;;4993115;28;20050;-83
2023/04/03 01:15:19;;;;;;;5.20;1.38;;;;;;;;;;4974150;28;20061;-84
2023/04/03 01:17:50;;;;;;;5.65;1.40;;;;;;;;;;4990998;28;20130;-84
2023/04/03 01:20:19;;;;;;;5.10;1.40;;;;;;;;;;4998084;28;20046;-84
2023/04/03 01:23:05;;;;;;;6.72;1.52;;;;;;;;;;5011022;28;20046;-84
2023/04/03 01:25:32;;;;;;;5.03;1.50;;;;;;;;;;5010499;28;20058;-84
2023/04/03 01:27:58;;;;;;;5.80;1.50;;;;;;;;;;5011118;28;20022;-83
2023/04/03 01:30:26;;;;;;;6.53;1.40;;;;;;;;;;5010308;28;20081;-84
2023/04/03 01:32:52;;;;;;;5.38;1.50;;;;;;;;;;5011991;28;20081;-84
2023/04/03 01:35:18;;;;;;;6.30;1.75;;;;;;;;;;5015182;28;20074;-84
2023/04/03 01:37:44;;;;;;;7.75;1.60;;;;;;;;;;5002053;28;20050;-84
2023/04/03 01:40:11;;;;;;;6.82;1.48;;;;;;;;;;5001312;28;20064;-84
2023/04/03 01:42:37;;;;;;;7.57;2.00;;;;;;;;;;5000355;28;20046;-84
2023/04/03 01:45:03;;;;;;;7.13;1.40;;;;;;;;;;5002180;28;20043;-85
2023/04/03 01:47:29;;;;;;;6.88;1.60;;;;;;;;;;5001001;28;20090;-85
2023/04/03 01:49:55;;;;;;;5.65;1.65;;;;;;;;;;4998426;28;20052;-85
2023/04/03 01:52:21;;;;;;;6.55;1.65;;;;;;;;;;5000411;28;20034;-85
2023/04/03 01:54:47;;;;;;;5.30;1.65;;;;;;;;;;4995704;28;20043;-84
2023/04/03 01:57:14;;;;;;;5.72;1.50;;;;;;;;;;4996766;28;20062;-84
2023/04/03 01:59:41;;;;;;;5.22;1.73;;;;;;;;;;5001826;28;20069;-83
2023/04/03 02:02:07;;;;;;;7.35;1.52;;;;;;;;;;4995184;28;20043;-85
2023/04/03 02:04:33;;;;;;;7.30;2.00;;;;;;;;;;5001810;28;20042;-85
2023/04/03 02:06:59;;;;;;;5.10;1.58;;;;;;;;;;4995308;28;20073;-85
2023/04/03 02:09:26;;;;;;;7.53;1.80;;;;;;;;;;4995475;28;20054;-84
2023/04/03 02:11:53;;;;;;;7.70;1.88;;;;;;;;;;4994419;28;20073;-85
2023/04/03 02:14:20;;;;;;;6.85;1.80;;;;;;;;;;5005870;28;20041;-87
2023/04/03 02:16:46;;;;;;;7.97;1.77;;;;;;;;;;5008381;28;20031;-87
2023/04/03 02:19:12;;;;;;;6.75;1.60;;;;;;;;;;4997859;28;20046;-85
2023/04/03 02:21:38;;;;;;;5.68;1.60;;;;;;;;;;5005475;28;20050;-85
2023/04/03 02:24:05;;;;;;;6.10;2.00;;;;;;;;;;4999638;28;20050;-83
2023/04/03 02:26:31;;;;;;;7.75;2.17;;;;;;;;;;4985907;28;20042;-84
2023/04/03 02:28:57;;;;;;;6.60;1.70;;;;;;;;;;4999489;28;20051;-84
2023/04/03 02:31:23;;;;;;;6.95;2.08;;;;;;;;;;5005190;28;20042;-85
2023/04/03 02:33:50;;;;;;;7.75;2.13;;;;;;;;;;5005186;28;20071;-85
2023/04/03 02:36:16;;;;;;;9.80;2.17;;;;;;;;;;5004230;28;20043;-84
2023/04/03 02:38:42;;;;;;;7.50;2.05;;;;;;;;;;5003548;28;20061;-84
2023/04/03 02:41:10;;;;;;;12.20;1.90;;;;;;;;;;5004521;28;20042;-84
2023/04/03 02:43:36;;;;;;;7.82;1.85;;;;;;;;;;5000291;28;20058;-85
2023/04/03 02:46:02;;;;;;;9.80;2.38;;;;;;;;;;5002896;28;20551;-85
2023/04/03 02:48:29;;;;;;;9.80;2.28;;;;;;;;;;5001947;28;20100;-85
2023/04/03 02:50:55;;;;;;;8.15;2.28;;;;;;;;;;5002503;28;20038;-85
2023/04/03 02:53:22;;;;;;;5.50;1.92;;;;;;;;;;5003022;28;20050;-85
2023/04/03 02:55:48;;;;;;;6.88;1.92;;;;;;;;;;5003010;28;20046;-84
2023/04/03 02:58:14;;;;;;;5.43;1.63;;;;;;;;;;4979678;28;20047;-84
2023/04/03 03:00:40;;;;;;;5.15;1.60;;;;;;;;;;5001071;28;20065;-85
2023/04/03 03:03:06;;;;;;;7.65;2.30;;;;;;;;;;4996408;28;20061;-85
2023/04/03 03:05:33;;;;;;;7.72;2.40;;;;;;;;;;4974699;28;20043;-85
2023/04/03 03:07:59;;;;;;;9.07;2.40;;;;;;;;;;4986091;28;20054;-87
2023/04/03 03:10:25;;;;;;;6.90;2.03;;;;;;;;;;5001955;28;20047;-84
2023/04/03 03:12:51;;;;;;;5.80;2.30;;;;;;;;;;5001117;28;20054;-84
2023/04/03 03:15:19;;;;;;;7.28;2.67;;;;;;;;;;4986893;28;20109;-84
2023/04/03 03:17:45;;;;;;;8.80;2.58;;;;;;;;;;5003844;28;20054;-86
2023/04/03 03:20:12;;;;;;;10.80;2.80;;;;;;;;;;4985247;28;20117;-85
2023/04/03 03:22:38;;;;;;;8.68;2.80;;;;;;;;;;5000833;28;20096;-86
2023/04/03 03:25:04;;;;;;;8.68;2.72;;;;;;;;;;4998578;28;20210;-85
2023/04/03 03:27:30;;;;;;;6.90;2.40;;;;;;;;;;5000744;28;20045;-85
2023/04/03 03:29:57;;;;;;;7.68;2.30;;;;;;;;;;4990349;28;20047;-85
2023/04/03 03:32:23;;;;;;;6.22;2.33;;;;;;;;;;5001214;28;20054;-86
2023/04/03 03:34:49;;;;;;;13.02;3.28;;;;;;;;;;4999021;28;20370;-85
2023/04/03 03:37:15;;;;;;;8.88;2.47;;;;;;;;;;5002444;28;20054;-84
2023/04/03 03:39:41;;;;;;;12.00;2.50;;;;;;;;;;4998225;28;20046;-87
2023/04/03 03:42:07;;;;;;;9.68;3.08;;;;;;;;;;4997992;28;20046;-85
2023/04/03 03:44:34;;;;;;;10.73;2.25;;;;;;;;;;4993919;28;20035;-86
2023/04/03 03:47:00;;;;;;;10.07;2.63;;;;;;;;;;4993455;28;20066;-85
2023/04/03 03:49:26;;;;;;;8.88;2.58;;;;;;;;;;4981956;28;20053;-87
2023/04/03 03:51:52;;;;;;;6.53;2.33;;;;;;;;;;4998893;28;20074;-85
2023/04/03 03:54:18;;;;;;;13.45;2.42;;;;;;;;;;5001545;28;20058;-86
2023/04/03 03:56:45;;;;;;;9.45;2.83;;;;;;;;;;4996997;28;20051;-85
2023/04/03 03:59:12;;;;;;;8.95;2.40;;;;;;;;;;4998137;28;20039;-84
2023/04/03 04:01:39;;;;;;;7.80;2.50;;;;;;;;;;4998493;28;20104;-88
2023/04/03 04:04:05;;;;;;;10.65;2.88;;;;;;;;;;5002713;28;20180;-85
2023/04/03 04:06:31;;;;;;;5.38;2.20;;;;;;;;;;4979669;28;20058;-85
2023/04/03 04:08:57;;;;;;;7.40;2.30;;;;;;;;;;4996641;28;20062;-85
2023/04/03 04:11:23;;;;;;;8.73;2.53;;;;;;;;;;4993599;28;20218;-85
2023/04/03 04:13:49;;;;;;;9.15;2.53;;;;;;;;;;4985658;28;20066;-84
2023/04/03 04:16:15;;;;;;;7.13;2.60;;;;;;;;;;4992951;28;20050;-86
2023/04/03 04:18:41;;;;;;;9.07;2.67;;;;;;;;;;4979700;28;20057;-85
2023/04/03 04:21:07;;;;;;;7.65;2.50;;;;;;;;;;4992709;28;20106;-86
2023/04/03 04:23:34;;;;;;;8.55;2.78;;;;;;;;;;5006056;28;20109;-85
2023/04/03 04:26:00;;;;;;;10.60;2.80;;;;;;;;;;4996634;28;20106;-85
2023/04/03 04:28:26;;;;;;;8.20;3.10;;;;;;;;;;5001882;28;20069;-85
2023/04/03 04:30:52;;;;;;;10.02;2.60;;;;;;;;;;5004212;28;20101;-85
2023/04/03 04:33:18;;;;;;;8.75;2.70;;;;;;;;;;5003394;28;20061;-85
2023/04/03 04:35:44;;;;;;;7.82;2.97;;;;;;;;;;4984160;28;20047;-85
2023/04/03 04:38:10;;;;;;;8.85;2.78;;;;;;;;;;4985214;28;20042;-84
2023/04/03 04:40:37;;;;;;;6.90;2.72;;;;;;;;;;5001082;28;20421;-85
2023/04/03 04:43:03;;;;;;;7.75;3.00;;;;;;;;;;5012322;28;20034;-84
2023/04/03 04:45:29;;;;;;;9.30;3.00;;;;;;;;;;5019257;28;20042;-86
2023/04/03 04:47:56;;;;;;;8.75;3.13;;;;;;;;;;5014435;28;20045;-85
2023/04/03 04:50:23;;;;;;;9.48;3.20;;;;;;;;;;5002225;28;20063;-86
2023/04/03 04:52:49;;;;;;;9.30;3.60;;;;;;;;;;4988820;28;20074;-85
2023/04/03 04:55:15;;;;;;;9.15;4.03;;;;;;;;;;4975326;28;20073;-86
2023/04/03 04:57:44;;;;;;;15.27;3.75;;;;;;;;;;5007945;28;20047;-86
2023/04/03 05:00:10;;;;;;;10.93;4.18;;;;;;;;;;4992641;28;20485;-86
2023/04/03 05:02:36;;;;;;;7.72;3.50;;;;;;;;;;4988434;28;20284;-86
2023/04/03 05:05:03;;;;;;;11.07;3.75;;;;;;;;;;4994373;28;20046;-85
2023/04/03 05:07:29;;;;;;;11.88;4.18;;;;;;;;;;4988933;28;20407;-85
2023/04/03 05:09:55;;;;;;;7.88;3.80;;;;;;;;;;4975636;28;20059;-86
2023/04/03 05:12:21;;;;;;;8.02;3.28;;;;;;;;;;4993563;28;20042;-86
2023/04/03 05:14:48;;;;;;;13.02;3.58;;;;;;;;;;4977544;28;20043;-86
2023/04/03 05:17:14;;;;;;;9.63;3.65;;;;;;;;;;4992158;28;20047;-86
2023/04/03 05:19:40;;;;;;;9.68;3.75;;;;;;;;;;4993007;28;20140;-86
2023/04/03 05:22:06;;;;;;;12.68;3.85;;;;;;;;;;4992240;28;20046;-86
2023/04/03 05:24:32;;;;;;;12.50;3.85;;;;;;;;;;4993207;28;20123;-86
2023/04/03 05:26:58;;;;;;;10.23;3.90;;;;;;;;;;4978086;28;20101;-85
2023/04/03 05:29:25;;;;;;;11.43;3.75;;;;;;;;;;4978937;28;20114;-86
2023/04/03 05:31:51;;;;;;;9.82;3.88;;;;;;;;;;4993653;28;20053;-86
2023/04/03 05:34:17;;;;;;;9.18;3.50;;;;;;;;;;4978675;28;20050;-86
2023/04/03 05:36:43;;;;;;;9.77;3.85;;;;;;;;;;4979125;28;20066;-87
2023/04/03 05:39:10;;;;;;;10.07;3.80;;;;;;;;;;5009672;28;20045;-86
2023/04/03 05:41:36;;;;;;;9.48;3.97;;;;;;;;;;4994498;28;20076;-86
2023/04/03 05:44:02;;;;;;;8.75;3.30;;;;;;;;;;4999918;28;20049;-86
2023/04/03 05:46:29;;;;;;;11.60;4.03;;;;;;;;;;5006321;28;20068;-85
2023/04/03 05:48:55;;;;;;;11.32;3.70;;;;;;;;;;5008179;28;20089;-85
2023/04/03 05:51:25;;;;;;;9.13;4.00;;;;;;;;;;4993823;28;20047;-85
2023/04/03 05:54:12;;;;;;;9.60;3.53;;;;;;;;;;4984948;28;20042;-86
2023/04/03 05:56:38;;;;;;;10.48;3.83;;;;;;;;;;5002170;28;20081;-85
2023/04/03 05:59:04;;;;;;;9.85;3.63;;;;;;;;;;5012286;28;20416;-87
2023/04/03 06:01:30;;;;;;;8.63;3.47;;;;;;;;;;4993530;28;20386;-86
2023/04/03 06:03:58;;;;;;;9.35;3.63;;;;;;;;;;4993367;28;20054;-85
2023/04/03 06:06:24;;;;;;;10.23;4.18;;;;;;;;;;4998751;28;20038;-85
2023/04/03 06:08:51;;;;;;;10.00;3.58;;;;;;;;;;4993623;28;20058;-86
2023/04/03 06:11:17;;;;;;;9.85;4.00;;;;;;;;;;4991785;28;20054;-87
2023/04/03 06:13:43;;;;;;;9.82;3.58;;;;;;;;;;4997593;28;20061;-86
2023/04/03 06:16:16;;;;;;;9.75;4.20;;;;;;;;;;4992170;28;20097;-86
2023/04/03 06:18:42;;;;;;;8.93;3.40;;;;;;;;;;4994814;28;20042;-87
2023/04/03 06:21:08;;;;;;;10.20;3.20;;;;;;;;;;4999647;28;20049;-85
2023/04/03 06:23:34;;;;;;;7.82;3.25;;;;;;;;;;5004624;28;20047;-86
2023/04/03 06:26:00;;;;;;;9.13;3.40;;;;;;;;;;5001841;28;20042;-85
2023/04/03 06:28:26;;;;;;;7.45;2.55;;;;;;;;;;4999960;28;20076;-86
2023/04/03 06:30:52;;;;;;;8.05;3.50;;;;;;;;;;5000394;28;20046;-86
2023/04/03 06:33:18;;;;;;;7.80;2.78;;;;;;;;;;4991378;28;20038;-85
2023/04/03 06:35:45;;;;;;;6.88;2.80;;;;;;;;;;4984831;28;20038;-86
2023/04/03 06:38:11;;;;;;;9.40;2.85;;;;;;;;;;4978288;28;20046;-85
2023/04/03 06:40:38;;;;;;;8.80;2.67;;;;;;;;;;4985998;28;20074;-85
2023/04/03 06:43:04;;;;;;;8.63;2.70;;;;;;;;;;4992010;28;20046;-86
2023/04/03 06:45:31;;;;;;;9.45;2.95;;;;;;;;;;4997763;28;20115;-86
2023/04/03 06:47:57;;;;;;;7.57;2.83;;;;;;;;;;4993365;28;20050;-84
2023/04/03 06:50:23;;;;;;;8.40;2.88;;;;;;;;;;4995731;28;20110;-86
2023/04/03 06:52:49;;;;;;;7.50;2.42;;;;;;;;;;5000594;28;20105;-86
2023/04/03 06:55:15;;;;;;;9.68;2.50;;;;;;;;;;5004165;28;20040;-85
2023/04/03 06:57:41;;;;;;;10.60;2.63;;;;;;;;;;5005886;28;20047;-85
2023/04/03 07:00:09;;;;;;;8.95;2.60;;;;;;;;;;5006998;28;20050;-84
2023/04/03 07:02:35;;;;;;;9.95;2.20;;;;;;;;;;5009583;28;20102;-84
2023/04/03 07:05:02;;;;;;;9.15;2.42;;;;;;;;;;5000555;28;20076;-86
2023/04/03 07:07:28;;;;;;;7.68;2.33;;;;;;;;;;5004544;28;20073;-85
2023/04/03 07:09:54;;;;;;;9.07;2.78;;;;;;;;;;5003718;28;20050;-84
2023/04/03 07:12:20;;;;;;;9.00;2.70;;;;;;;;;;5004436;28;20058;-84
2023/04/03 07:14:46;;;;;;;8.93;2.42;;;;;;;;;;5005902;28;20046;-83
2023/04/03 07:17:12;;;;;;;11.18;2.58;;;;;;;;;;5006397;28;20054;-84
2023/04/03 07:19:39;;;;;;;9.77;2.50;;;;;;;;;;5006598;28;20050;-85
2023/04/03 07:22:05;;;;;;;8.57;2.70;;;;;;;;;;5002422;28;20050;-85
2023/04/03 07:24:31;;;;;;;8.60;2.75;;;;;;;;;;4992756;28;20042;-84
2023/04/03 07:26:57;;;;;;;7.57;2.20;;;;;;;;;;5006364;28;20050;-84
2023/04/03 07:29:23;;;;;;;10.15;2.90;;;;;;;;;;4991514;28;20086;-85
2023/04/03 07:31:49;;;;;;;11.02;2.63;;;;;;;;;;5006668;28;20046;-86
2023/04/03 07:34:16;;;;;;;7.22;2.38;;;;;;;;;;5018437;28;20043;-85
2023/04/03 07:36:42;;;;;;;8.45;2.30;;;;;;;;;;5002761;28;20157;-86
2023/04/03 07:39:08;;;;;;;7.78;2.20;;;;;;;;;;5005956;28;20122;-87
2023/04/03 07:41:34;;;;;;;8.95;2.03;;;;;;;;;;5007995;28;20053;-85
2023/04/03 07:44:00;;;;;;;7.93;2.42;;;;;;;;;;4997384;28;20093;-83
2023/04/03 07:46:26;;;;;;;8.43;2.25;;;;;;;;;;5007808;28;20190;-84
2023/04/03 07:48:52;;;;;;;7.10;1.92;;;;;;;;;;5009317;28;20034;-85
2023/04/03 07:51:19;;;;;;;9.32;2.13;;;;;;;;;;5007662;28;20054;-82
2023/04/03 07:53:45;;;;;;;8.25;2.15;;;;;;;;;;5011341;28;20105;-83
2023/04/03 07:56:12;;;;;;;6.05;1.80;;;;;;;;;;5012224;28;20061;-83
2023/04/03 07:58:38;;;;;;;8.43;2.28;;;;;;;;;;5010881;28;20054;-83
2023/04/03 08:01:04;;;;;;;8.32;1.88;;;;;;;;;;4994907;28;20053;-83
2023/04/03 08:03:30;;;;;;;9.20;2.45;;;;;;;;;;5014295;28;20046;-84
2023/04/03 08:06:02;;;;;;;8.18;2.20;;;;;;;;;;5010802;28;20061;-83
2023/04/03 08:08:29;;;;;;;7.20;2.08;;;;;;;;;;5011704;28;20054;-83
2023/04/03 08:10:55;;;;;;;6.80;1.98;;;;;;;;;;4994859;28;20082;-84
2023/04/03 08:13:22;;;;;;;5.97;1.60;;;;;;;;;;5011606;28;20114;-83
2023/04/03 08:15:48;;;;;;;7.45;1.95;;;;;;;;;;5006844;28;20046;-85
2023/04/03 08:18:15;;;;;;;6.38;1.67;;;;;;;;;;4999108;28;20047;-83
2023/04/03 08:20:41;;;;;;;7.57;2.10;;;;;;;;;;5004374;28;20050;-83
2023/04/03 08:23:08;;;;;;;7.63;1.60;;;;;;;;;;4991816;28;20054;-83
2023/04/03 08:25:36;;;;;;;8.18;1.90;;;;;;;;;;4980674;28;20412;-83
2023/04/03 08:28:02;;;;;;;6.32;1.63;;;;;;;;;;4994118;28;20144;-83
2023/04/03 08:30:28;;;;;;;6.40;1.40;;;;;;;;;;5007521;28;20401;-83
2023/04/03 08:32:54;;;;;;;5.85;1.67;;;;;;;;;;5007551;28;20054;-84
2023/04/03 08:35:20;;;;;;;6.97;1.50;;;;;;;;;;5004924;28;20066;-84
2023/04/03 08:37:47;;;;;;;6.68;1.50;;;;;;;;;;5005051;28;20496;-83
2023/04/03 08:40:17;;;;;;;5.20;1.63;;;;;;;;;;5004689;28;20053;-83
2023/04/03 08:42:58;;;;;;;5.75;1.30;;;;;;;;;;5004152;28;20113;-84
2023/04/03 08:45:31;;;;;;;5.53;1.45;;;;;;;;;;5006375;28;20043;-84
2023/04/03 08:47:57;;;;;;;7.35;1.60;;;;;;;;;;5005895;28;20046;-84
2023/04/03 08:50:28;;;;;;;7.18;1.48;;;;;;;;;;5008095;28;20042;-83
2023/04/03 08:52:58;;;;;;;5.47;1.60;;;;;;;;;;5000164;28;20464;-82
2023/04/03 08:55:29;;;;;;;5.07;1.50;;;;;;;;;;5011087;28;20087;-83
2023/04/03 08:58:03;;;;;;;4.17;1.20;;;;;;;;;;5009379;28;20064;-84
2023/04/03 09:00:45;;;;;;;6.57;1.17;;;;;;;;;;5001653;28;20085;-83
2023/04/03 09:03:15;;;;;;;6.22;1.40;;;;;;;;;;5009824;28;20104;-83
2023/04/03 09:05:46;;;;;;;4.85;1.50;;;;;;;;;;5007955;28;20074;-82
2023/04/03 09:08:26;;;;;;;6.70;1.42;;;;;;;;;;5008302;28;20058;-83
2023/04/03 09:10:59;;;;;;;6.72;1.27;;;;;;;;;;5006122;28;20497;-83
2023/04/03 09:13:30;;;;;;;6.45;1.35;;;;;;;;;;5009696;28;20057;-83
2023/04/03 09:15:56;;;;;;;4.70;1.20;;;;;;;;;;5007004;28;20046;-83
2023/04/03 09:18:39;;;;;;;5.25;1.40;;;;;;;;;;4993525;28;20042;-84
2023/04/03 09:21:13;;;;;;;6.20;1.20;;;;;;;;;;5004537;28;20046;-83
2023/04/03 09:23:50;;;;;;;5.10;1.20;;;;;;;;;;5020880;28;20096;-82
2023/04/03 09:26:29;;;;;;;4.60;1.10;;;;;;;;;;5023694;28;20126;-82
2023/04/03 09:28:56;;;;;;;5.63;1.20;;;;;;;;;;5014368;28;20046;-84
2023/04/03 09:31:24;;;;;;;3.97;1.08;;;;;;;;;;5007277;28;20043;-83
2023/04/03 09:33:51;;;;;;;5.97;1.40;;;;;;;;;;4995296;28;20050;-83
2023/04/03 09:36:51;;;;;;;6.35;1.70;;;;;;;;;;5007935;28;20129;-84
2023/04/03 09:39:27;;;;;;;5.15;1.17;;;;;;;;;;5008700;28;20042;-83
2023/04/03 09:41:56;;;;;;;5.10;1.20;;;;;;;;;;4990771;28;20109;-85
2023/04/03 09:44:23;;;;;;;3.38;1.10;;;;;;;;;;5007301;28;20045;-84
2023/04/03 09:46:50;;;;;;;5.55;1.25;;;;;;;;;;5005410;28;20051;-84
2023/04/03 09:49:17;;;;;;;7.05;1.30;;;;;;;;;;5007796;28;20068;-83
2023/04/03 09:51:45;;;;;;;4.43;1.00;;;;;;;;;;4983662;28;20131;-83
2023/04/03 09:54:31;;;;;;;6.25;1.42;;;;;;;;;;5008103;28;20111;-83
2023/04/03 09:56:59;;;;;;;4.88;1.13;;;;;;;;;;5011952;28;20061;-84
2023/04/03 09:59:26;;;;;;;5.07;1.00;;;;;;;;;;5007446;28;20049;-85
2023/04/03 10:02:00;;;;;;;4.35;1.15;;;;;;;;;;4995365;28;20070;-84
2023/04/03 10:04:26;;;;;;;4.57;1.58;;;;;;;;;;4996689;28;20045;-85
2023/04/03 10:06:53;;;;;;;5.10;1.40;;;;;;;;;;4999282;28;20072;-85
2023/04/03 10:09:26;;;;;;;3.70;0.93;;;;;;;;;;4997273;28;20130;-87
2023/04/03 10:12:06;;;;;;;4.15;1.00;;;;;;;;;;4999596;28;20050;-85
2023/04/03 10:14:40;;;;;;;5.85;1.10;;;;;;;;;;5003117;28;20418;-84
2023/04/03 10:17:19;;;;;;;4.47;1.17;;;;;;;;;;5007526;28;20050;-83
2023/04/03 10:19:48;;;;;;;7.65;1.33;;;;;;;;;;5001136;28;20042;-84
2023/04/03 10:22:29;;;;;;;5.05;1.10;;;;;;;;;;5006739;28;20053;-83
2023/04/03 10:25:18;;;;;;;4.43;1.23;;;;;;;;;;4988032;28;20049;-84
2023/04/03 10:28:00;;;;;;;4.38;1.08;;;;;;;;;;4998858;28;20042;-84
2023/04/03 10:30:29;;;;;;;6.53;1.20;;;;;;;;;;5007613;28;20125;-83
2023/04/03 10:33:13;;;;;;;6.32;1.55;;;;;;;;;;5008124;28;20085;-84
2023/04/03 10:35:39;;;;;;;6.22;1.40;;;;;;;;;;5006830;28;20415;-83
2023/04/03 10:38:13;;;;;;;4.55;1.05;;;;;;;;;;5007943;28;20101;-83
2023/04/03 10:40:40;;;;;;;4.82;1.10;;;;;;;;;;5008876;28;20416;-84
2023/04/03 10:43:18;;;;;;;4.05;1.13;;;;;;;;;;5006408;28;20111;-84
2023/04/03 10:45:44;;;;;;;5.25;1.40;;;;;;;;;;5000372;28;20077;-85
2023/04/03 10:48:19;;;;;;;4.18;1.17;;;;;;;;;;5006224;28;20473;-83
2023/04/03 10:51:04;;;;;;;4.72;1.30;;;;;;;;;;5007364;28;20133;-82
2023/04/03 10:53:32;;;;;;;6.75;1.48;;;;;;;;;;5004818;28;20053;-83
2023/04/03 10:56:17;;;;;;;5.88;1.35;;;;;;;;;;5008235;28;20061;-82
2023/04/03 10:58:45;;;;;;;5.18;1.17;;;;;;;;;;5002816;28;20050;-82
2023/04/03 11:01:22;;;;;;;4.47;1.17;;;;;;;;;;5004959;28;20043;-84
2023/04/03 11:03:56;;;;;;;5.43;1.48;;;;;;;;;;5005447;28;20057;-84
2023/04/03 11:06:24;;;;;;;5.50;1.65;;;;;;;;;;5000363;28;20051;-83
2023/04/03 11:09:13;;;;;;;5.45;1.05;;;;;;;;;;5002667;28;20062;-85
2023/04/03 11:11:40;;;;;;;5.68;1.30;;;;;;;;;;5002514;28;20094;-83
2023/04/03 11:14:15;;;;;;;4.90;1.40;;;;;;;;;;5003516;28;20047;-83
2023/04/03 11:16:44;;;;;;;6.13;2.03;;;;;;;;;;5007099;28;20408;-82
2023/04/03 11:19:13;;;;;;;3.67;1.15;;;;;;;;;;5004946;28;20112;-84
2023/04/03 11:21:45;;;;;;;6.40;1.30;;;;;;;;;;4984795;28;20050;-83
2023/04/03 11:24:21;;;;;;;6.38;1.20;;;;;;;;;;4995094;28;20051;-82
2023/04/03 11:26:47;;;;;;;4.72;1.25;;;;;;;;;;4999348;28;20053;-82
2023/04/03 11:29:15;;;;;;;4.70;1.10;;;;;;;;;;4996280;28;20477;-83
2023/04/03 11:32:00;;;;;;;4.65;1.00;;;;;;;;;;4994206;28;20050;-84
2023/04/03 11:34:34;;;;;;;4.30;1.15;;;;;;;;;;5001148;28;20062;-84
2023/04/03 11:37:01;;;;;;;5.32;1.42;;;;;;;;;;5005270;28;20056;-84
2023/04/03 11:39:30;;;;;;;4.43;1.23;;;;;;;;;;4989783;28;20034;-85
2023/04/03 11:42:13;;;;;;;11.63;2.95;;;;;;;;;;5005608;28;20054;-80
2023/04/03 11:44:39;;;;;;;4.72;1.27;;;;;;;;;;5008027;28;20129;-81
2023/04/03 11:47:07;;;;;;;4.43;1.20;;;;;;;;;;5004750;28;20106;-82
2023/04/03 11:49:53;;;;;;;7.60;1.33;;;;;;;;;;5006676;28;20052;-80
2023/04/03 11:52:37;;;;;;;5.88;1.30;;;;;;;;;;5001278;28;20043;-81
2023/04/03 11:55:24;;;;;;;3.88;1.13;;;;;;;;;;5009113;28;20047;-81
2023/04/03 11:58:00;;;;;;;5.38;1.38;;;;;;;;;;5001894;28;20070;-82
2023/04/03 12:00:50;;;;;;;4.40;1.10;;;;;;;;;;5009184;28;20098;-82
2023/04/03 12:03:29;;;;;;;6.82;1.20;;;;;;;;;;5008162;28;20026;-82
2023/04/03 12:06:09;;;;;;;3.42;0.90;;;;;;;;;;4994822;28;20046;-82
2023/04/03 12:08:41;;;;;;;4.85;1.30;;;;;;;;;;4992976;28;20059;-79
2023/04/03 12:11:16;;;;;;;5.90;1.40;;;;;;;;;;4995621;28;20115;-81
2023/04/03 12:13:55;;;;;;;5.30;1.20;;;;;;;;;;4991623;28;20043;-82
2023/04/03 12:16:32;;;;;;;3.78;1.40;;;;;;;;;;5001794;28;20050;-82
2023/04/03 12:19:03;;;;;;;5.20;1.45;;;;;;;;;;5011177;28;20106;-82
2023/04/03 12:21:29;;;;;;;4.07;1.23;;;;;;;;;;5013080;28;20058;-81
2023/04/03 12:24:02;;;;;;;8.50;1.40;;;;;;;;;;5015307;28;20081;-82
2023/04/03 12:26:34;;;;;;;5.60;1.40;;;;;;;;;;5012298;28;20057;-81
2023/04/03 12:29:02;;;;;;;6.18;1.52;;;;;;;;;;5008082;28;20081;-83
2023/04/03 12:31:37;;;;;;;5.60;1.40;;;;;;;;;;5008120;28;20038;-82
2023/04/03 12:34:12;;;;;;;7.18;1.60;;;;;;;;;;5004847;28;20042;-83
2023/04/03 12:36:41;;;;;;;5.15;1.42;;;;;;;;;;4994445;28;20121;-83
2023/04/03 12:39:17;;;;;;;5.65;1.30;;;;;;;;;;4996730;28;20050;-82
2023/04/03 12:41:58;;;;;;;4.03;1.17;;;;;;;;;;4997863;28;20051;-81
2023/04/03 12:44:27;;;;;;;3.25;1.17;;;;;;;;;;4987580;28;20104;-83
2023/04/03 12:46:54;;;;;;;5.35;1.10;;;;;;;;;;4993277;28;20118;-83
2023/04/03 12:49:29;;;;;;;5.50;1.15;;;;;;;;;;4998662;28;20062;-84
2023/04/03 12:51:56;;;;;;;5.78;1.52;;;;;;;;;;5008101;28;20050;-81
2023/04/03 12:54:27;;;;;;;4.32;1.20;;;;;;;;;;5009126;28;20050;-84
2023/04/03 12:57:12;;;;;;;5.85;1.30;;;;;;;;;;5010785;28;20029;-83
2023/04/03 12:59:45;;;;;;;4.75;1.45;;;;;;;;;;5007891;28;20059;-83
2023/04/03 13:02:21;;;;;;;5.50;1.23;;;;;;;;;;4992221;28;20061;-83
2023/04/03 13:04:49;;;;;;;5.85;1.27;;;;;;;;;;5003499;28;20057;-84
2023/04/03 13:07:25;;;;;;;6.28;1.30;;;;;;;;;;5001238;28;20078;-84
2023/04/03 13:10:02;;;;;;;4.57;1.20;;;;;;;;;;4994784;28;20081;-84
2023/04/03 13:12:29;;;;;;;5.88;1.52;;;;;;;;;;5001661;28;20042;-83
2023/04/03 13:14:57;;;;;;;5.57;1.63;;;;;;;;;;5000804;28;20100;-86
2023/04/03 13:17:24;;;;;;;4.28;1.30;;;;;;;;;;4993856;28;20084;-83
2023/04/03 13:19:51;;;;;;;5.43;1.35;;;;;;;;;;4997082;28;20042;-88
2023/04/03 13:22:29;;;;;;;6.60;1.65;;;;;;;;;;5003239;28;20060;-84
2023/04/03 13:24:57;;;;;;;5.82;1.67;;;;;;;;;;4993015;28;20085;-82
2023/04/03 13:27:24;;;;;;;5.80;1.77;;;;;;;;;;5009012;28;20056;-83
2023/04/03 13:29:51;;;;;;;5.13;1.48;;;;;;;;;;5007682;28;20042;-82
2023/04/03 13:32:22;;;;;;;4.85;1.70;;;;;;;;;;5007959;28;20073;-83
2023/04/03 13:34:48;;;;;;;4.07;1.30;;;;;;;;;;5006765;28;20051;-84
2023/04/03 13:37:29;;;;;;;4.78;1.33;;;;;;;;;;4990049;28;20050;-82
2023/04/03 13:39:58;;;;;;;4.20;1.67;;;;;;;;;;5008107;28;20134;-84
2023/04/03 13:42:29;;;;;;;8.45;1.70;;;;;;;;;;5002858;28;20081;-83
2023/04/03 13:45:14;;;;;;;7.20;1.50;;;;;;;;;;4984487;28;20074;-82
2023/04/03 13:47:42;;;;;;;8.00;1.63;;;;;;;;;;5001118;28;20056;-84
2023/04/03 13:50:14;;;;;;;4.68;1.67;;;;;;;;;;5004631;28;20042;-84
2023/04/03 13:52:42;;;;;;;4.93;1.40;;;;;;;;;;5002155;28;20039;-85
2023/04/03 13:55:21;;;;;;;5.85;1.63;;;;;;;;;;4999041;28;20053;-84
2023/04/03 13:58:10;;;;;;;5.15;1.63;;;;;;;;;;4987581;28;20575;-83
2023/04/03 14:00:39;;;;;;;3.83;1.30;;;;;;;;;;4999467;28;20064;-84
2023/04/03 14:03:21;;;;;;;4.55;1.48;;;;;;;;;;5001512;28;20051;-82
2023/04/03 14:05:47;;;;;;;8.10;1.80;;;;;;;;;;5005141;28;20049;-82
2023/04/03 14:08:13;;;;;;;4.97;1.75;;;;;;;;;;4998847;28;20063;-83
2023/04/03 14:10:39;;;;;;;6.88;1.70;;;;;;;;;;5002651;28;20575;-83
2023/04/03 14:13:06;;;;;;;5.55;1.50;;;;;;;;;;5010638;28;20104;-83
2023/04/03 14:15:32;;;;;;;5.93;1.23;;;;;;;;;;5009562;28;20394;-83
2023/04/03 14:17:59;;;;;;;7.20;1.83;;;;;;;;;;5008069;28;20039;-82
2023/04/03 14:20:27;;;;;;;3.22;1.10;;;;;;;;;;5005545;28;20038;-83
2023/04/03 14:22:53;;;;;;;4.40;1.27;;;;;;;;;;5006077;28;20096;-82
2023/04/03 14:25:20;;;;;;;6.20;1.50;;;;;;;;;;5006678;28;20034;-83
2023/04/03 14:27:48;;;;;;;5.57;1.65;;;;;;;;;;5008552;28;20050;-82
2023/04/03 14:30:44;;;;;;;5.97;1.60;;;;;;;;;;5006010;28;20054;-82
2023/04/03 14:33:13;;;;;;;4.75;1.27;;;;;;;;;;5002138;28;20057;-83
2023/04/03 14:35:39;;;;;;;4.57;1.20;;;;;;;;;;5007247;28;20047;-82
2023/04/03 14:38:12;;;;;;;6.38;1.73;;;;;;;;;;5008737;28;20077;-85
2023/04/03 14:40:38;;;;;;;4.82;1.30;;;;;;;;;;5003076;28;20069;-82
2023/04/03 14:43:04;;;;;;;4.75;1.73;;;;;;;;;;4987482;28;20050;-83
2023/04/03 14:45:30;;;;;;;5.53;1.40;;;;;;;;;;4997310;28;20053;-84
2023/04/03 14:47:56;;;;;;;4.93;1.40;;;;;;;;;;5006063;28;20100;-83
2023/04/03 14:50:24;;;;;;;4.53;1.40;;;;;;;;;;5004647;28;20054;-83
2023/04/03 14:52:51;;;;;;;7.05;1.80;;;;;;;;;;5004139;28;20046;-84